Time;durP1;ratioP1;P1;durP2;ratioP2;P2;SDS_P1;SDS_P2;PMS_P1;PMS_P2;Temp;Humidity;BMP_temperature;BMP_pressure;BME280_temperature;BME280_humidity;BME280_pressure;Samples;Min_cycle;Max_cycle;Signal;HPM_P1;HPM_P2
2023/01/25 00:01:04;;;;;;;27.10;24.60;;;1.40;99.90;;;;;;6125156;23;20419;-72
2023/01/25 00:03:34;;;;;;;28.00;24.60;;;1.40;99.90;;;;;;6136817;23;20888;-72
2023/01/25 00:06:02;;;;;;;25.80;23.20;;;1.40;99.90;;;;;;6136246;23;20898;-72
2023/01/25 00:08:37;;;;;;;28.13;25.33;;;1.40;99.90;;;;;;6125108;23;20430;-72
2023/01/25 00:11:05;;;;;;;26.57;23.83;;;1.30;99.90;;;;;;6137516;23;20419;-71
2023/01/25 00:13:33;;;;;;;29.20;26.30;;;1.40;99.90;;;;;;6125253;23;20947;-71
2023/01/25 00:16:02;;;;;;;28.27;25.63;;;1.40;99.90;;;;;;6146391;23;20493;-71
2023/01/25 00:18:30;;;;;;;29.17;26.33;;;1.30;99.90;;;;;;6139579;23;20417;-72
2023/01/25 00:21:00;;;;;;;29.80;26.90;;;1.30;99.90;;;;;;6134400;23;20913;-73
2023/01/25 00:23:28;;;;;;;30.00;27.00;;;1.30;99.90;;;;;;6134163;23;20410;-72
2023/01/25 00:25:57;;;;;;;31.00;27.83;;;1.30;99.90;;;;;;6143942;23;20483;-72
2023/01/25 00:28:25;;;;;;;30.23;27.27;;;1.30;99.90;;;;;;6143004;23;20921;-72
2023/01/25 00:30:53;;;;;;;31.40;28.10;;;1.30;99.90;;;;;;6131462;23;20446;-71
2023/01/25 00:33:38;;;;;;;30.63;27.53;;;1.30;99.90;;;;;;6131073;23;20476;-72
2023/01/25 00:36:32;;;;;;;30.43;27.40;;;1.30;99.90;;;;;;6131198;23;20415;-71
2023/01/25 00:39:00;;;;;;;34.00;30.60;;;1.30;99.90;;;;;;6142128;23;20751;-72
2023/01/25 00:41:29;;;;;;;31.60;28.33;;;1.30;99.90;;;;;;6132162;23;20406;-71
2023/01/25 00:43:57;;;;;;;34.80;31.20;;;1.30;99.90;;;;;;6141625;23;20494;-71
2023/01/25 00:46:25;;;;;;;31.87;28.67;;;1.30;99.90;;;;;;6141421;23;20412;-72
2023/01/25 00:48:54;;;;;;;33.03;29.50;;;1.30;99.90;;;;;;6127128;23;20423;-71
2023/01/25 00:51:23;;;;;;;31.77;28.63;;;1.30;99.90;;;;;;6126885;23;20443;-71
2023/01/25 00:53:53;;;;;;;30.30;27.40;;;1.30;99.90;;;;;;6138023;23;20895;-72
2023/01/25 00:56:21;;;;;;;33.00;29.80;;;1.30;99.90;;;;;;6126575;23;20513;-71
2023/01/25 00:58:49;;;;;;;33.93;30.63;;;1.30;99.90;;;;;;6126747;23;20793;-71
2023/01/25 01:01:19;;;;;;;33.63;30.33;;;1.30;99.90;;;;;;6126630;23;20414;-72
2023/01/25 01:03:50;;;;;;;33.67;30.43;;;1.30;99.90;;;;;;6126601;23;20458;-71
2023/01/25 01:06:19;;;;;;;33.20;30.00;;;1.30;99.90;;;;;;6126435;23;20417;-71
2023/01/25 01:08:47;;;;;;;35.67;32.27;;;1.30;99.90;;;;;;6126503;23;20453;-71
2023/01/25 01:11:16;;;;;;;31.73;28.63;;;1.30;99.90;;;;;;6137998;23;20438;-72
2023/01/25 01:13:44;;;;;;;35.77;32.23;;;1.30;99.90;;;;;;6126379;23;20911;-71
2023/01/25 01:16:13;;;;;;;35.90;32.23;;;1.30;99.90;;;;;;6137579;23;20403;-71
2023/01/25 01:18:44;;;;;;;35.53;32.23;;;1.30;99.90;;;;;;6126536;23;20412;-72
2023/01/25 01:21:13;;;;;;;35.53;32.03;;;1.30;99.90;;;;;;6138038;23;20477;-71
2023/01/25 01:23:42;;;;;;;32.97;29.67;;;1.30;99.90;;;;;;6137768;23;20708;-72
2023/01/25 01:26:13;;;;;;;36.80;33.30;;;1.30;99.90;;;;;;6137861;23;20478;-72
2023/01/25 01:28:43;;;;;;;36.00;32.40;;;1.30;99.90;;;;;;6126237;23;20946;-72
2023/01/25 01:31:13;;;;;;;34.10;30.63;;;1.30;99.90;;;;;;6126063;23;20755;-71
2023/01/25 01:33:49;;;;;;;34.57;31.13;;;1.30;99.90;;;;;;6126586;23;20453;-71
2023/01/25 01:36:19;;;;;;;33.30;29.80;;;1.30;99.90;;;;;;6126177;23;20882;-72
2023/01/25 01:38:48;;;;;;;36.23;32.63;;;1.30;99.90;;;;;;6126277;23;20413;-71
2023/01/25 01:41:17;;;;;;;36.20;32.60;;;1.30;99.90;;;;;;6137840;23;20407;-72
2023/01/25 01:43:47;;;;;;;34.53;30.97;;;1.30;99.90;;;;;;6126135;23;20501;-72
2023/01/25 01:46:25;;;;;;;33.77;30.57;;;1.30;99.90;;;;;;6126392;23;20426;-72
2023/01/25 01:48:58;;;;;;;36.63;33.03;;;1.30;99.90;;;;;;6126530;23;20464;-71
2023/01/25 01:51:35;;;;;;;34.70;31.30;;;1.30;99.90;;;;;;6138283;23;20783;-71
2023/01/25 01:54:09;;;;;;;34.10;30.90;;;1.30;99.90;;;;;;6126847;23;20413;-72
2023/01/25 01:56:43;;;;;;;36.30;32.60;;;1.30;99.90;;;;;;6137640;23;20765;-71
2023/01/25 01:59:15;;;;;;;32.23;29.07;;;1.30;99.90;;;;;;6126032;23;20498;-71
2023/01/25 02:01:44;;;;;;;32.93;29.80;;;1.20;99.90;;;;;;6126056;23;20891;-71
2023/01/25 02:04:16;;;;;;;36.17;32.73;;;1.30;99.90;;;;;;6126237;23;20533;-71
2023/01/25 02:06:50;;;;;;;35.97;32.53;;;1.20;99.90;;;;;;6126613;23;20477;-72
2023/01/25 02:09:23;;;;;;;34.43;30.93;;;1.20;99.90;;;;;;6127430;23;20793;-72
2023/01/25 02:11:53;;;;;;;34.27;30.60;;;1.30;99.90;;;;;;6126102;23;20481;-72
2023/01/25 02:14:25;;;;;;;33.37;30.03;;;1.20;99.90;;;;;;6126491;23;20502;-72
2023/01/25 02:16:53;;;;;;;34.30;30.90;;;1.20;99.90;;;;;;6126310;23;20438;-72
2023/01/25 02:19:34;;;;;;;35.47;31.77;;;1.20;99.90;;;;;;6125956;23;20425;-72
2023/01/25 02:22:09;;;;;;;34.33;30.87;;;1.20;99.90;;;;;;6125908;23;20968;-72
2023/01/25 02:24:42;;;;;;;33.17;29.57;;;1.20;99.90;;;;;;6126065;23;20405;-72
2023/01/25 02:27:12;;;;;;;36.80;33.20;;;1.20;99.90;;;;;;6125936;23;20446;-72
2023/01/25 02:29:41;;;;;;;36.10;32.30;;;1.20;99.90;;;;;;6125789;23;20502;-72
2023/01/25 02:32:09;;;;;;;34.03;30.73;;;1.20;99.90;;;;;;6137698;23;20823;-72
2023/01/25 02:34:37;;;;;;;33.53;30.20;;;1.20;99.90;;;;;;6137098;23;20453;-72
2023/01/25 02:37:08;;;;;;;35.00;31.50;;;1.20;99.90;;;;;;6126380;23;20464;-72
2023/01/25 02:39:36;;;;;;;33.50;30.23;;;1.20;99.90;;;;;;6137457;23;20403;-72
2023/01/25 02:42:04;;;;;;;35.13;31.60;;;1.20;99.90;;;;;;6125688;23;20416;-71
2023/01/25 02:44:34;;;;;;;36.00;32.33;;;1.20;99.90;;;;;;6125760;23;20419;-71
2023/01/25 02:47:04;;;;;;;33.83;30.37;;;1.10;99.90;;;;;;6124289;23;20935;-71
2023/01/25 02:49:35;;;;;;;32.20;29.00;;;1.20;99.90;;;;;;6124326;23;20425;-71
2023/01/25 02:52:04;;;;;;;34.30;30.90;;;1.20;99.90;;;;;;6124175;23;20500;-70
2023/01/25 02:54:32;;;;;;;34.63;31.07;;;1.20;99.90;;;;;;6136008;23;20406;-71
2023/01/25 02:57:02;;;;;;;29.63;26.67;;;1.20;99.90;;;;;;6124890;23;20500;-71
2023/01/25 02:59:40;;;;;;;32.80;29.53;;;1.10;99.90;;;;;;6124562;23;20446;-71
2023/01/25 03:02:09;;;;;;;33.90;30.50;;;1.10;99.90;;;;;;6124226;23;20418;-71
2023/01/25 03:04:37;;;;;;;32.90;29.50;;;1.10;99.90;;;;;;6124198;23;20449;-71
2023/01/25 03:07:05;;;;;;;35.07;31.73;;;1.10;99.90;;;;;;6124129;23;20953;-71
2023/01/25 03:09:34;;;;;;;35.10;31.57;;;1.10;99.90;;;;;;6124118;23;20418;-71
2023/01/25 03:12:02;;;;;;;34.13;30.70;;;1.10;99.90;;;;;;6123767;23;20425;-71
2023/01/25 03:14:32;;;;;;;34.07;30.73;;;1.10;99.90;;;;;;6124867;23;20418;-71
2023/01/25 03:17:02;;;;;;;34.13;30.73;;;1.10;99.90;;;;;;6124016;23;20501;-71
2023/01/25 03:19:31;;;;;;;34.27;30.80;;;1.10;99.90;;;;;;6124132;23;20422;-71
2023/01/25 03:21:59;;;;;;;35.10;31.60;;;1.10;99.90;;;;;;6124417;23;20416;-71
2023/01/25 03:24:27;;;;;;;34.83;31.30;;;1.20;99.90;;;;;;6124068;23;20760;-71
2023/01/25 03:27:12;;;;;;;34.33;30.83;;;1.20;99.90;;;;;;6124075;23;20470;-71
2023/01/25 03:29:47;;;;;;;32.13;28.73;;;1.10;99.90;;;;;;6124806;23;20719;-71
2023/01/25 03:32:27;;;;;;;34.43;30.67;;;1.10;99.90;;;;;;6124000;23;20433;-71
2023/01/25 03:34:55;;;;;;;34.23;30.10;;;1.10;99.90;;;;;;6124058;23;20422;-71
2023/01/25 03:37:30;;;;;;;35.30;31.60;;;1.10;99.90;;;;;;6123932;23;20497;-71
2023/01/25 03:39:59;;;;;;;36.37;32.63;;;1.10;99.90;;;;;;6124048;23;20428;-71
2023/01/25 03:42:27;;;;;;;35.07;31.33;;;1.10;99.90;;;;;;6135349;23;20404;-71
2023/01/25 03:44:57;;;;;;;34.07;30.53;;;1.10;99.90;;;;;;6076244;23;1128775;-74
2023/01/25 03:47:27;;;;;;;32.90;29.43;;;1.10;99.90;;;;;;6136400;23;20754;-71
2023/01/25 03:49:55;;;;;;;34.53;30.97;;;1.10;99.90;;;;;;6136431;23;20394;-71
2023/01/25 03:52:25;;;;;;;34.07;30.43;;;1.10;99.90;;;;;;6124995;23;20451;-71
2023/01/25 03:54:57;;;;;;;33.87;29.27;;;1.10;99.90;;;;;;6117346;23;20893;-71
2023/01/25 03:57:25;;;;;;;34.67;30.90;;;1.10;99.90;;;;;;6124928;23;20536;-71
2023/01/25 04:00:01;;;;;;;35.27;30.10;;;1.00;99.90;;;;;;6125706;23;20747;-71
2023/01/25 04:02:33;;;;;;;35.73;30.90;;;1.00;99.90;;;;;;6126925;23;20402;-71
2023/01/25 04:05:02;;;;;;;33.30;28.43;;;1.00;99.90;;;;;;6125123;23;20410;-71
2023/01/25 04:07:30;;;;;;;35.57;30.20;;;1.00;99.90;;;;;;6124957;23;20525;-71
2023/01/25 04:09:58;;;;;;;38.23;33.50;;;1.00;99.90;;;;;;6124970;23;20417;-71
2023/01/25 04:12:27;;;;;;;35.87;30.80;;;1.00;99.90;;;;;;6124921;23;20433;-71
2023/01/25 04:14:55;;;;;;;37.90;32.60;;;1.00;99.90;;;;;;6124971;23;20409;-71
2023/01/25 04:17:25;;;;;;;35.17;29.93;;;0.90;99.90;;;;;;6125361;23;20450;-71
2023/01/25 04:20:03;;;;;;;42.90;34.00;;;1.00;99.90;;;;;;6124914;23;20438;-71
2023/01/25 04:22:36;;;;;;;37.00;31.33;;;1.00;99.90;;;;;;6124478;23;20407;-71
2023/01/25 04:25:07;;;;;;;39.43;33.23;;;0.90;99.90;;;;;;6125005;23;20423;-71
2023/01/25 04:27:39;;;;;;;38.27;31.67;;;1.00;99.90;;;;;;6125381;23;20452;-71
2023/01/25 04:30:12;;;;;;;38.60;31.63;;;1.00;99.90;;;;;;6125885;23;20413;-71
2023/01/25 04:32:41;;;;;;;36.30;30.70;;;0.90;99.90;;;;;;6125782;23;20410;-71
2023/01/25 04:35:20;;;;;;;38.47;31.13;;;0.90;99.90;;;;;;6124947;23;20421;-71
2023/01/25 04:37:54;;;;;;;36.53;29.97;;;0.90;99.90;;;;;;6125386;23;20453;-71
2023/01/25 04:40:25;;;;;;;34.60;29.73;;;0.90;99.90;;;;;;6124907;23;20414;-71
2023/01/25 04:42:54;;;;;;;34.53;30.60;;;0.90;99.90;;;;;;6124765;23;20421;-71
2023/01/25 04:45:22;;;;;;;37.67;32.10;;;0.90;99.90;;;;;;6124583;23;20434;-71
2023/01/25 04:47:55;;;;;;;38.20;32.60;;;0.90;99.90;;;;;;6124617;23;20439;-71
2023/01/25 04:50:24;;;;;;;35.57;29.20;;;0.90;99.90;;;;;;6136439;23;20889;-71
2023/01/25 04:52:53;;;;;;;36.70;28.90;;;0.90;99.90;;;;;;6124646;23;20422;-71
2023/01/25 04:55:23;;;;;;;38.90;31.20;;;0.90;99.90;;;;;;6124612;23;20754;-71
2023/01/25 04:57:53;;;;;;;36.70;29.90;;;0.90;99.90;;;;;;6124701;23;20755;-71
2023/01/25 05:00:21;;;;;;;39.33;31.80;;;0.90;99.90;;;;;;6124741;23;20794;-71
2023/01/25 05:02:49;;;;;;;36.10;29.60;;;0.90;99.90;;;;;;6124806;23;20414;-71
2023/01/25 05:05:18;;;;;;;39.90;32.10;;;0.90;99.90;;;;;;6124637;23;20428;-71
2023/01/25 05:07:49;;;;;;;40.40;33.90;;;0.90;99.90;;;;;;6124617;23;20453;-71
2023/01/25 05:10:17;;;;;;;40.97;35.37;;;0.90;99.90;;;;;;6124661;23;20419;-71
2023/01/25 05:13:05;;;;;;;41.40;33.93;;;0.90;99.90;;;;;;6125850;23;20449;-71
2023/01/25 05:15:33;;;;;;;39.50;31.90;;;0.90;99.90;;;;;;6125281;23;20418;-71
2023/01/25 05:18:03;;;;;;;38.67;31.40;;;0.90;99.90;;;;;;6124575;23;20497;-71
2023/01/25 05:20:32;;;;;;;38.10;32.60;;;0.90;99.90;;;;;;6124576;23;20425;-71
2023/01/25 05:23:02;;;;;;;39.30;33.07;;;0.90;99.90;;;;;;6124603;23;20913;-71
2023/01/25 05:28:25;;;;;;;43.33;35.40;;;0.90;99.90;;;;;;6124714;23;20524;-71
2023/01/25 05:31:09;;;;;;;40.03;33.43;;;0.90;99.90;;;;;;6124999;23;20464;-71
2023/01/25 05:33:37;;;;;;;37.17;29.50;;;0.90;99.90;;;;;;6125305;23;20595;-71
2023/01/25 05:36:06;;;;;;;37.07;29.60;;;0.90;99.90;;;;;;6128040;23;20406;-71
2023/01/25 05:38:38;;;;;;;38.20;31.30;;;0.80;99.90;;;;;;6126766;23;20472;-71
2023/01/25 05:41:09;;;;;;;40.53;31.83;;;0.80;99.90;;;;;;6126471;23;20417;-71
2023/01/25 05:43:37;;;;;;;39.13;32.50;;;0.80;99.90;;;;;;6126296;23;20434;-71
2023/01/25 05:46:07;;;;;;;38.67;31.30;;;0.80;99.90;;;;;;6126090;23;20764;-71
2023/01/25 05:48:36;;;;;;;42.63;35.57;;;0.80;99.90;;;;;;6126235;23;20482;-71
2023/01/25 05:51:05;;;;;;;42.50;35.73;;;0.80;99.90;;;;;;6126185;23;20468;-71
2023/01/25 05:53:33;;;;;;;40.30;33.33;;;0.80;99.90;;;;;;6125957;23;20448;-71
2023/01/25 05:56:06;;;;;;;44.10;34.53;;;0.80;99.90;;;;;;6126101;23;20895;-71
2023/01/25 05:58:35;;;;;;;39.53;31.60;;;0.80;99.90;;;;;;6126192;23;20809;-71
2023/01/25 06:01:04;;;;;;;40.20;31.90;;;0.80;99.90;;;;;;6126084;23;20406;-71
2023/01/25 06:03:42;;;;;;;40.30;31.60;;;0.80;99.90;;;;;;6126173;23;20409;-71
2023/01/25 06:06:10;;;;;;;40.30;32.73;;;0.80;99.90;;;;;;6125935;23;20920;-71
2023/01/25 06:08:38;;;;;;;37.77;31.20;;;0.80;99.90;;;;;;6126254;23;20780;-71
2023/01/25 06:11:09;;;;;;;37.80;30.60;;;0.80;99.90;;;;;;6126595;23;20414;-71
2023/01/25 06:13:41;;;;;;;37.60;30.70;;;0.80;99.90;;;;;;6127064;23;20498;-71
2023/01/25 06:16:10;;;;;;;38.20;31.60;;;0.70;99.90;;;;;;6126166;23;20468;-71
2023/01/25 06:18:38;;;;;;;40.20;32.03;;;0.80;99.90;;;;;;6138012;23;20701;-71
2023/01/25 06:21:19;;;;;;;39.47;30.83;;;0.80;99.90;;;;;;6126223;23;20402;-71
2023/01/25 06:23:47;;;;;;;39.17;31.00;;;0.80;99.90;;;;;;6137819;23;20433;-71
2023/01/25 06:26:17;;;;;;;43.70;35.73;;;0.80;99.90;;;;;;6137168;23;20729;-71
2023/01/25 06:28:45;;;;;;;40.00;33.87;;;0.70;99.90;;;;;;6127350;23;20912;-72
2023/01/25 06:31:15;;;;;;;43.17;33.27;;;0.70;99.90;;;;;;6137095;23;20398;-71
2023/01/25 06:33:47;;;;;;;42.60;36.40;;;0.70;99.90;;;;;;6125631;23;20516;-71
2023/01/25 06:36:17;;;;;;;44.57;35.10;;;0.70;99.90;;;;;;6126325;23;20733;-71
2023/01/25 06:38:49;;;;;;;39.63;32.97;;;0.70;99.90;;;;;;6137670;23;20403;-71
2023/01/25 06:41:19;;;;;;;40.10;31.87;;;0.70;99.90;;;;;;6125663;23;20406;-71
2023/01/25 06:43:50;;;;;;;41.20;30.90;;;0.70;99.90;;;;;;6137407;23;20385;-71
2023/01/25 06:46:19;;;;;;;44.97;35.03;;;0.70;99.90;;;;;;6125059;23;20734;-71
2023/01/25 06:48:48;;;;;;;41.40;32.33;;;0.70;99.90;;;;;;6125666;23;20429;-71
2023/01/25 06:51:16;;;;;;;43.40;33.20;;;0.70;99.90;;;;;;6136901;23;20398;-71
2023/01/25 06:53:46;;;;;;;45.73;37.10;;;0.60;99.90;;;;;;6137224;23;20421;-70
2023/01/25 06:56:17;;;;;;;46.27;37.53;;;0.60;99.90;;;;;;6125335;23;20781;-71
2023/01/25 06:58:47;;;;;;;47.97;37.07;;;0.50;99.90;;;;;;6136882;23;20397;-71
2023/01/25 07:01:18;;;;;;;44.17;35.87;;;0.60;99.90;;;;;;6125582;23;20469;-71
2023/01/25 07:03:48;;;;;;;42.50;35.07;;;0.50;99.90;;;;;;6125533;23;20405;-71
2023/01/25 07:06:17;;;;;;;47.43;38.03;;;0.50;99.90;;;;;;6127229;23;20382;-71
2023/01/25 07:08:45;;;;;;;46.37;34.97;;;0.50;99.90;;;;;;6125475;23;20741;-70
2023/01/25 07:11:15;;;;;;;47.77;38.17;;;0.50;99.90;;;;;;6125406;23;20417;-71
2023/01/25 07:13:45;;;;;;;48.27;38.20;;;0.50;99.90;;;;;;6137352;23;20874;-70
2023/01/25 07:16:16;;;;;;;51.10;38.70;;;0.50;99.90;;;;;;6136537;23;20925;-71
2023/01/25 07:18:45;;;;;;;48.53;38.30;;;0.60;99.90;;;;;;6125324;23;20402;-70
2023/01/25 07:21:14;;;;;;;44.57;36.40;;;0.50;99.90;;;;;;6125366;23;20423;-71
2023/01/25 07:23:43;;;;;;;51.27;38.30;;;0.60;99.90;;;;;;6136722;23;20457;-71
2023/01/25 07:26:16;;;;;;;51.33;40.17;;;0.50;99.90;;;;;;6136460;23;20404;-71
2023/01/25 07:28:45;;;;;;;51.10;40.87;;;0.60;99.90;;;;;;6125391;23;20416;-71
2023/01/25 07:31:15;;;;;;;51.23;40.93;;;0.60;99.90;;;;;;6125218;23;20421;-71
2023/01/25 07:33:44;;;;;;;50.37;39.57;;;0.60;99.90;;;;;;6137274;23;20433;-71
2023/01/25 07:36:12;;;;;;;51.93;39.03;;;0.60;99.90;;;;;;6136380;23;20459;-71
2023/01/25 07:38:40;;;;;;;53.00;40.53;;;0.60;99.90;;;;;;6136573;23;20408;-71
2023/01/25 07:41:08;;;;;;;50.93;41.30;;;0.60;99.90;;;;;;6136847;23;20406;-71
2023/01/25 07:43:36;;;;;;;55.50;41.17;;;0.60;99.90;;;;;;6136480;23;20425;-71
2023/01/25 07:46:08;;;;;;;50.63;38.10;;;0.60;99.90;;;;;;6125066;23;20496;-71
2023/01/25 07:48:39;;;;;;;51.13;40.63;;;0.60;99.90;;;;;;6125134;23;20441;-71
2023/01/25 07:51:21;;;;;;;55.37;40.70;;;0.60;99.90;;;;;;6136448;23;20410;-71
2023/01/25 07:53:51;;;;;;;53.93;42.23;;;0.60;99.90;;;;;;6137101;23;20838;-71
2023/01/25 07:56:19;;;;;;;56.63;42.40;;;0.60;99.90;;;;;;6124676;23;20443;-71
2023/01/25 07:58:48;;;;;;;53.17;40.63;;;0.50;99.90;;;;;;6124953;23;20418;-71
2023/01/25 08:01:18;;;;;;;55.37;43.73;;;0.50;99.90;;;;;;6136297;23;20433;-71
2023/01/25 08:03:48;;;;;;;55.80;42.03;;;0.50;99.90;;;;;;6126876;23;20727;-71
2023/01/25 08:06:16;;;;;;;52.90;41.03;;;0.50;99.90;;;;;;6124879;23;20417;-70
2023/01/25 08:08:47;;;;;;;52.43;39.73;;;0.50;99.90;;;;;;6125013;23;20417;-70
2023/01/25 08:11:17;;;;;;;53.43;38.00;;;0.50;99.90;;;;;;6136672;23;20719;-70
2023/01/25 08:13:45;;;;;;;49.00;38.20;;;0.50;99.90;;;;;;6125029;23;20410;-69
2023/01/25 08:16:14;;;;;;;49.23;39.50;;;0.50;99.90;;;;;;6124860;23;20485;-71
2023/01/25 08:18:42;;;;;;;50.60;38.77;;;0.50;99.90;;;;;;6136256;23;20398;-71
2023/01/25 08:21:11;;;;;;;52.73;39.93;;;0.60;99.90;;;;;;6125055;23;20425;-71
2023/01/25 08:23:39;;;;;;;49.43;38.10;;;0.60;99.90;;;;;;6138255;23;20437;-71
2023/01/25 08:26:10;;;;;;;54.63;40.63;;;0.60;99.90;;;;;;6137908;23;20399;-71
2023/01/25 08:28:38;;;;;;;54.87;42.90;;;0.60;99.90;;;;;;6138034;23;20397;-71
2023/01/25 08:31:07;;;;;;;49.57;40.03;;;0.60;99.90;;;;;;6137990;23;20397;-71
2023/01/25 08:33:36;;;;;;;52.47;40.63;;;0.60;99.90;;;;;;6138043;23;20417;-71
2023/01/25 08:36:07;;;;;;;48.63;38.13;;;0.60;99.90;;;;;;6137246;23;20426;-71
2023/01/25 08:38:37;;;;;;;53.90;40.53;;;0.60;99.90;;;;;;6136747;23;20377;-71
2023/01/25 08:41:06;;;;;;;52.17;38.60;;;0.60;99.90;;;;;;6136241;23;20741;-71
2023/01/25 08:43:34;;;;;;;49.17;37.53;;;0.60;99.90;;;;;;6136966;23;20394;-71
2023/01/25 08:46:02;;;;;;;47.97;37.50;;;0.50;99.90;;;;;;6124482;23;20433;-71
2023/01/25 08:48:30;;;;;;;49.17;38.00;;;0.60;99.90;;;;;;6136360;23;20424;-71
2023/01/25 08:50:58;;;;;;;49.97;39.30;;;0.50;99.90;;;;;;6136389;23;20409;-71
2023/01/25 08:53:27;;;;;;;50.67;38.10;;;0.60;99.90;;;;;;6136364;23;20401;-71
2023/01/25 08:56:02;;;;;;;49.20;39.30;;;0.50;99.90;;;;;;6136018;23;20771;-71
2023/01/25 08:58:30;;;;;;;46.73;37.50;;;0.50;99.90;;;;;;6136105;23;20444;-70
2023/01/25 09:01:03;;;;;;;45.13;37.33;;;0.50;99.90;;;;;;6136039;23;20425;-71
2023/01/25 09:03:31;;;;;;;49.50;38.23;;;0.50;99.90;;;;;;6136342;23;20388;-71
2023/01/25 09:06:00;;;;;;;47.80;37.10;;;0.50;99.90;;;;;;6124651;23;20416;-71
2023/01/25 09:08:28;;;;;;;49.87;38.70;;;0.50;99.90;;;;;;6136270;23;20451;-71
2023/01/25 09:11:01;;;;;;;48.60;38.90;;;0.50;99.90;;;;;;6138582;23;20788;-71
2023/01/25 09:13:29;;;;;;;49.30;38.00;;;0.50;99.90;;;;;;6138295;23;20477;-71
2023/01/25 09:16:01;;;;;;;49.73;38.90;;;0.50;99.90;;;;;;6126383;23;20442;-71
2023/01/25 09:18:31;;;;;;;46.10;36.33;;;0.50;99.90;;;;;;6137755;23;20449;-71
2023/01/25 09:21:00;;;;;;;46.07;36.43;;;0.50;99.90;;;;;;6128302;23;20460;-70
2023/01/25 09:23:28;;;;;;;46.43;36.40;;;0.50;99.90;;;;;;6137733;23;20857;-71
2023/01/25 09:25:58;;;;;;;52.80;40.33;;;0.50;99.90;;;;;;6126420;23;20794;-71
2023/01/25 09:28:28;;;;;;;47.97;37.40;;;0.50;99.90;;;;;;6138276;23;20442;-71
2023/01/25 09:30:57;;;;;;;53.40;41.40;;;0.50;99.90;;;;;;6137613;23;20888;-71
2023/01/25 09:34:16;;;;;;;50.03;35.33;;;0.50;99.90;;;;;;6116981;23;20425;-71
2023/01/25 09:36:44;;;;;;;53.07;36.37;;;0.40;99.90;;;;;;6137763;23;20496;-71
2023/01/25 09:39:12;;;;;;;46.23;35.30;;;0.40;99.90;;;;;;6126257;23;20413;-71
2023/01/25 09:42:05;;;;;;;48.30;36.00;;;0.40;99.90;;;;;;6126108;23;20477;-71
2023/01/25 09:45:15;;;;;;;47.30;33.73;;;0.40;99.90;;;;;;6137952;23;20381;-71
2023/01/25 09:47:47;;;;;;;46.47;33.73;;;0.40;99.90;;;;;;6113670;23;20936;-71
2023/01/25 09:50:33;;;;;;;44.40;34.17;;;0.30;99.90;;;;;;6126118;23;20433;-71
2023/01/25 09:53:25;;;;;;;48.07;36.07;;;0.40;99.90;;;;;;6126235;23;20448;-71
2023/01/25 09:55:58;;;;;;;45.60;35.50;;;0.30;99.90;;;;;;6125901;23;20508;-71
2023/01/25 09:58:34;;;;;;;47.20;35.20;;;0.30;99.90;;;;;;6137780;23;20423;-71
2023/01/25 10:01:16;;;;;;;47.47;36.03;;;0.30;99.90;;;;;;6137854;23;20478;-71
2023/01/25 10:03:55;;;;;;;51.33;38.37;;;0.40;99.90;;;;;;6137916;23;20744;-71
2023/01/25 10:06:29;;;;;;;51.20;38.07;;;0.40;99.90;;;;;;6137650;23;20836;-71
2023/01/25 10:09:03;;;;;;;46.70;34.63;;;0.40;99.90;;;;;;6126034;23;20816;-71
2023/01/25 10:11:32;;;;;;;52.90;36.50;;;0.40;99.90;;;;;;6126069;23;20420;-70
2023/01/25 10:14:02;;;;;;;48.40;36.73;;;0.40;99.90;;;;;;6127781;23;20412;-71
2023/01/25 10:16:35;;;;;;;49.07;39.40;;;0.40;99.90;;;;;;6137681;23;20520;-71
2023/01/25 10:19:12;;;;;;;47.97;35.97;;;0.40;99.90;;;;;;6127102;23;20438;-70
2023/01/25 10:21:43;;;;;;;49.67;38.30;;;0.40;99.90;;;;;;6138216;23;20772;-71
2023/01/25 10:24:34;;;;;;;47.07;39.00;;;0.40;99.90;;;;;;6138021;23;20389;-72
2023/01/25 10:27:14;;;;;;;48.93;37.10;;;0.40;99.90;;;;;;6137337;23;20947;-71
2023/01/25 10:29:44;;;;;;;47.93;36.50;;;0.40;99.90;;;;;;6126084;23;20415;-71
2023/01/25 10:32:19;;;;;;;50.60;36.13;;;0.40;99.90;;;;;;6137239;23;20404;-71
2023/01/25 10:34:49;;;;;;;50.10;37.93;;;0.50;99.90;;;;;;6137256;23;20407;-71
2023/01/25 10:37:27;;;;;;;48.70;34.80;;;0.50;99.90;;;;;;6137363;23;20445;-71
2023/01/25 10:40:02;;;;;;;44.70;34.37;;;0.50;99.90;;;;;;6137434;23;20394;-71
2023/01/25 10:42:41;;;;;;;44.90;34.50;;;0.50;99.90;;;;;;6137863;23;20387;-71
2023/01/25 10:45:13;;;;;;;46.07;34.70;;;0.40;99.90;;;;;;6137303;23;20394;-71
2023/01/25 10:47:45;;;;;;;48.20;37.43;;;0.50;99.90;;;;;;6137605;23;20417;-71
2023/01/25 10:50:58;;;;;;;48.10;36.00;;;0.40;99.90;;;;;;6127553;23;20486;-70
2023/01/25 10:53:30;;;;;;;47.67;36.83;;;0.40;99.90;;;;;;6038093;23;20405;-71
2023/01/25 10:56:11;;;;;;;45.03;35.07;;;0.40;99.90;;;;;;6119220;23;20425;-71
2023/01/25 10:58:41;;;;;;;48.87;37.13;;;0.40;99.90;;;;;;6125507;23;20409;-71
2023/01/25 11:01:13;;;;;;;46.00;35.83;;;0.40;99.90;;;;;;6136945;23;20442;-71
2023/01/25 11:03:44;;;;;;;47.40;38.43;;;0.40;99.90;;;;;;6125605;23;20421;-71
2023/01/25 11:06:12;;;;;;;49.07;38.43;;;0.40;99.90;;;;;;6125350;23;20413;-71
2023/01/25 11:08:42;;;;;;;48.33;39.20;;;0.40;99.90;;;;;;6137132;23;20406;-71
2023/01/25 11:11:25;;;;;;;45.90;36.30;;;0.40;99.90;;;;;;6125414;23;20900;-71
2023/01/25 11:13:54;;;;;;;47.50;37.10;;;0.40;99.90;;;;;;6136959;23;20412;-71
2023/01/25 11:16:31;;;;;;;51.83;40.63;;;0.40;99.90;;;;;;6136650;23;20525;-71
2023/01/25 11:19:01;;;;;;;47.47;37.30;;;0.50;99.90;;;;;;6125423;23;20896;-71
2023/01/25 11:21:31;;;;;;;49.47;38.90;;;0.50;99.90;;;;;;6136717;23;20434;-71
2023/01/25 11:24:16;;;;;;;51.33;39.70;;;0.40;99.90;;;;;;6137037;23;20431;-71
2023/01/25 11:26:45;;;;;;;53.23;39.60;;;0.50;99.90;;;;;;6124433;23;20788;-71
2023/01/25 11:29:16;;;;;;;50.33;37.93;;;0.40;99.90;;;;;;6125323;23;20424;-71
2023/01/25 11:31:48;;;;;;;47.60;36.70;;;0.50;99.90;;;;;;6127028;23;20481;-71
2023/01/25 11:34:17;;;;;;;52.70;40.27;;;0.50;99.90;;;;;;6136936;23;20389;-71
2023/01/25 11:37:01;;;;;;;52.03;39.73;;;0.50;99.90;;;;;;6136698;23;20445;-71
2023/01/25 11:39:46;;;;;;;52.17;41.40;;;0.50;99.90;;;;;;6126234;23;20414;-71
2023/01/25 11:42:27;;;;;;;51.70;38.60;;;0.50;99.90;;;;;;6126854;23;20886;-70
2023/01/25 11:45:20;;;;;;;52.83;39.13;;;0.50;99.90;;;;;;6125368;23;20745;-71
2023/01/25 11:48:01;;;;;;;51.50;41.30;;;0.50;99.90;;;;;;6136548;23;20472;-71
2023/01/25 11:50:36;;;;;;;45.83;35.20;;;0.50;99.90;;;;;;6136910;23;20379;-71
2023/01/25 11:53:38;;;;;;;45.10;34.80;;;0.50;99.90;;;;;;6136403;23;20485;-70
2023/01/25 11:56:13;;;;;;;46.43;34.10;;;0.50;99.90;;;;;;6120801;23;20417;-71
2023/01/25 11:59:00;;;;;;;45.53;36.23;;;0.50;99.90;;;;;;6136812;23;20417;-71
2023/01/25 12:01:38;;;;;;;45.80;37.33;;;0.50;99.90;;;;;;6136739;23;20378;-71
2023/01/25 12:04:54;;;;;;;42.07;33.83;;;0.50;99.90;;;;;;6136369;23;20762;-71
2023/01/25 12:07:35;;;;;;;48.20;35.63;;;0.50;99.90;;;;;;6047047;23;20448;-71
2023/01/25 12:10:19;;;;;;;48.73;38.27;;;0.50;99.90;;;;;;6115956;23;20433;-71
2023/01/25 12:12:55;;;;;;;48.73;36.83;;;0.50;99.90;;;;;;6137312;23;20815;-71
2023/01/25 12:15:53;;;;;;;50.00;36.57;;;0.40;99.90;;;;;;6137079;23;20382;-71
2023/01/25 12:18:34;;;;;;;46.83;36.67;;;0.50;99.90;;;;;;6136337;23;20430;-71
2023/01/25 12:21:10;;;;;;;46.50;37.70;;;0.50;99.90;;;;;;6136473;23;20834;-71
2023/01/25 12:24:14;;;;;;;46.13;34.90;;;0.50;99.90;;;;;;6136995;23;20752;-71
2023/01/25 12:26:53;;;;;;;50.33;37.90;;;0.50;99.90;;;;;;6136164;23;20437;-71
2023/01/25 12:29:26;;;;;;;52.07;40.17;;;0.50;99.90;;;;;;6136256;23;20816;-71
2023/01/25 12:32:00;;;;;;;51.90;37.83;;;0.50;99.90;;;;;;6136924;23;20463;-71
2023/01/25 12:34:35;;;;;;;49.80;38.90;;;0.50;99.90;;;;;;6124829;23;20464;-71
2023/01/25 12:37:11;;;;;;;46.30;36.50;;;0.50;99.90;;;;;;6124803;23;20449;-71
2023/01/25 12:39:49;;;;;;;47.33;38.37;;;0.50;99.90;;;;;;6137138;23;20774;-72
2023/01/25 12:42:21;;;;;;;48.37;36.67;;;0.50;99.90;;;;;;6136821;23;20827;-70
2023/01/25 12:44:56;;;;;;;51.17;41.53;;;0.50;99.90;;;;;;6137630;23;20452;-70
2023/01/25 12:47:33;;;;;;;49.10;40.43;;;0.50;99.90;;;;;;6126702;23;20456;-72
2023/01/25 12:50:09;;;;;;;45.97;37.23;;;0.50;99.90;;;;;;6126727;23;20421;-72
2023/01/25 12:52:42;;;;;;;49.83;39.80;;;0.50;99.90;;;;;;6138064;23;20459;-70
2023/01/25 12:55:16;;;;;;;49.50;38.43;;;0.50;99.90;;;;;;6126730;23;20417;-70
2023/01/25 12:57:53;;;;;;;49.73;38.87;;;0.50;99.90;;;;;;6128081;23;20738;-70
2023/01/25 13:00:25;;;;;;;53.23;39.33;;;0.50;99.90;;;;;;6128121;23;20871;-70
2023/01/25 13:03:08;;;;;;;48.60;37.30;;;0.50;99.90;;;;;;6128466;23;20399;-69
2023/01/25 13:05:41;;;;;;;51.67;37.33;;;0.50;99.90;;;;;;6128478;23;20484;-70